Pagina principale
METAR-TAF:

METAR-TAF

Aeroporti :

Aeroporto di Calvi Sainte-Catherine

Calvi, Francia

latitudine: 42-32N, longitudine: 008-48E, altezza: 64 m

Osservazione

Il bollettino è stato emesso 15 minuti fa, alle 15:00 UTC
Vento 5 kt da ovest/nord-ovest
Temperature 15°C
Umidità 82%
Pressione 1013 hPa
Visibilità 10 km o più
Poco nuvoloso ad un'altezza di 3100 ft
Cielo coperto ad un'altezza di 17000 ft

METAR: LFKC 061500Z AUTO 30005KT 9999 FEW031 OVC170 15/12 Q1013 NOSIG

Ora: 16:15 (15:15 UTC)

Previsione

Il bollettino è stato emesso 1 ora e 15 minuti fa, alle 14:00 UTC
Previsione valida dal 06 alle 15 UTC al 07 alle 15 UTC
Vento 5 kt da nord-ovest
Visibilità 10 km o più
Poco nuvoloso ad un'altezza di 3000 ft
Nubi sparse ad un'altezza di 15000 ft
Evoluzione graduale
dal 07 alle 04 UTC al 07 alle 06 UTC
Vento 10 kt da sud/sud-ovest

TAF: LFKC 061400Z 0615/0715 32005KT 9999 FEW030 SCT150 TX18/0712Z TN09/0705Z BECMG 0704/0706 21010KT

Osservazioni e previsioni meteorologiche di più di 4000 aeroporti (messaggi METAR e TAF).

Le stazioni disponibili sono rappresentate dai dischi gialli e rossi sulla carta.

Puntare il mouse per vedere il nome della stazione.

Clicca sopra per visualizzare le osservazioni e previsioni meteorologiche.

Per cambiare la mappa : fare clic sui pulsanti verdi con una croce nera per ingrandire, il pulsante verde con un trattino per diminuire, o sulla freccia verde per le mappe adiacenti.


METAR-TAF: